createdAt,value
2019-02-07T00:01:41.673Z,0.52
2019-02-07T00:05:48.912Z,0.56
2019-02-07T00:09:56.602Z,0.63
2019-02-07T00:14:03.903Z,0.69
2019-02-07T00:18:11.346Z,0.75
2019-02-07T00:22:18.788Z,0.70
2019-02-07T00:26:30.351Z,0.77
2019-02-07T00:30:38.425Z,0.72
2019-02-07T00:34:46.042Z,0.77
2019-02-07T00:38:53.504Z,0.69
2019-02-07T00:43:02.132Z,0.76
2019-02-07T00:47:09.827Z,0.77
2019-02-07T00:51:17.460Z,0.72
2019-02-07T00:55:24.566Z,0.69
2019-02-07T00:59:31.440Z,0.60
2019-02-07T01:03:38.418Z,0.73
2019-02-07T01:07:45.972Z,0.76
2019-02-07T01:11:53.858Z,0.58
2019-02-07T01:16:00.694Z,0.62
2019-02-07T01:20:10.910Z,0.48
2019-02-07T01:24:17.798Z,0.45
2019-02-07T01:28:24.733Z,0.45
2019-02-07T01:32:31.582Z,0.51
2019-02-07T01:36:38.399Z,0.50
2019-02-07T01:40:45.479Z,0.64
2019-02-07T01:44:52.388Z,0.50
2019-02-07T01:48:59.275Z,0.36
2019-02-07T01:53:06.546Z,0.40
2019-02-07T01:57:13.903Z,0.44
2019-02-07T02:01:21.280Z,0.61
2019-02-07T02:05:35.973Z,0.50
2019-02-07T02:09:42.879Z,0.42
2019-02-07T02:13:49.705Z,0.62
2019-02-07T02:17:56.644Z,0.55
2019-02-07T02:22:03.940Z,0.64
2019-02-07T02:26:10.795Z,0.68
2019-02-07T02:30:25.703Z,0.64
2019-02-07T02:34:32.561Z,0.80
2019-02-07T02:38:39.561Z,0.58
2019-02-07T02:42:46.898Z,0.52
2019-02-07T02:46:53.778Z,0.48
2019-02-07T02:51:00.869Z,0.70
2019-02-07T02:55:09.056Z,0.66
2019-02-07T02:59:15.938Z,0.46
2019-02-07T03:03:48.439Z,0.70
2019-02-07T03:08:16.966Z,0.64
2019-02-07T03:12:43.915Z,0.63
2019-02-07T03:17:12.715Z,0.67
2019-02-07T03:21:32.946Z,0.65
2019-02-07T03:26:03.689Z,0.59
2019-02-07T03:30:33.381Z,0.68
2019-02-07T03:35:01.996Z,0.77
2019-02-07T03:39:28.463Z,0.82
2019-02-07T03:43:51.917Z,0.93
2019-02-07T03:48:20.694Z,0.99
2019-02-07T03:52:55.412Z,1.04
2019-02-07T03:57:16.133Z,0.94
2019-02-07T04:01:42.228Z,0.81
2019-02-07T04:06:07.049Z,0.94
2019-02-07T04:10:24.150Z,0.84
2019-02-07T04:14:59.381Z,0.96
2019-02-07T04:19:31.585Z,0.71
2019-02-07T04:24:06.766Z,0.63
2019-02-07T04:28:32.432Z,0.61
2019-02-07T04:32:57.535Z,0.61
2019-02-07T04:37:26.173Z,0.74
2019-02-07T04:41:45.642Z,0.78
2019-02-07T04:46:26.409Z,0.51
2019-02-07T04:50:44.322Z,0.82
2019-02-07T04:54:59.905Z,0.77
2019-02-07T04:59:27.315Z,0.84
2019-02-07T05:04:05.460Z,0.95
2019-02-07T05:08:33.385Z,0.88
2019-02-07T05:13:12.119Z,0.79
2019-02-07T05:17:29.335Z,0.74
2019-02-07T05:21:54.093Z,0.81
2019-02-07T05:26:12.784Z,0.77
2019-02-07T05:30:29.824Z,0.79
2019-02-07T05:35:07.651Z,0.83
2019-02-07T05:39:33.476Z,0.78
2019-02-07T05:43:57.845Z,0.83
2019-02-07T05:48:21.834Z,0.88
2019-02-07T05:53:02.643Z,0.86
2019-02-07T05:57:27.392Z,0.95
2019-02-07T06:01:51.829Z,0.95
2019-02-07T06:06:16.577Z,1.01
2019-02-07T06:11:08.916Z,0.97
2019-02-07T06:15:37.752Z,0.98
2019-02-07T06:20:13.297Z,0.97
2019-02-07T06:24:54.839Z,0.98
2019-02-07T06:29:20.010Z,0.94
2019-02-07T06:33:44.487Z,0.97
2019-02-07T06:37:59.492Z,0.89
2019-02-07T06:42:23.553Z,1.00
2019-02-07T06:46:58.762Z,1.07
2019-02-07T06:51:27.857Z,1.00
2019-02-07T06:55:54.565Z,1.13
2019-02-07T07:00:34.155Z,1.21
2019-02-07T07:05:00.136Z,1.10
2019-02-07T07:09:36.790Z,1.07
2019-02-07T07:14:11.801Z,1.30
2019-02-07T07:18:46.824Z,1.41
2019-02-07T07:23:21.882Z,1.47
2019-02-07T07:27:56.543Z,1.48
2019-02-07T07:32:21.479Z,1.58
2019-02-07T07:36:50.080Z,1.45
2019-02-07T07:41:34.083Z,1.50
2019-02-07T07:45:58.749Z,1.39
2019-02-07T07:50:26.224Z,1.33
2019-02-07T07:54:42.845Z,1.46
2019-02-07T07:59:07.145Z,1.46
2019-02-07T08:03:41.977Z,1.51
2019-02-07T08:08:07.113Z,1.68
2019-02-07T08:12:44.927Z,1.52
2019-02-07T08:17:15.228Z,1.75
2019-02-07T08:21:49.424Z,1.46
2019-02-07T08:26:13.475Z,1.65
2019-02-07T08:30:54.566Z,1.70
2019-02-07T08:35:11.532Z,1.76
2019-02-07T08:39:38.336Z,1.88
2019-02-07T08:44:07.148Z,1.84
2019-02-07T08:48:38.836Z,1.72
2019-02-07T08:53:10.745Z,1.86
2019-02-07T08:57:40.257Z,1.94
2019-02-07T09:02:06.039Z,1.97
2019-02-07T09:06:31.793Z,2.11
2019-02-07T09:11:03.834Z,2.03
2019-02-07T09:15:27.330Z,1.98
2019-02-07T09:19:55.858Z,2.16
2019-02-07T09:24:20.593Z,1.80
2019-02-07T09:28:45.096Z,1.85
2019-02-07T09:33:23.406Z,2.21
2019-02-07T09:37:48.930Z,2.15
2019-02-07T09:42:13.256Z,2.30
2019-02-07T09:46:38.129Z,2.24
2019-02-07T09:50:58.261Z,2.35
2019-02-07T09:55:19.716Z,2.34
2019-02-07T09:59:57.834Z,2.42
2019-02-07T10:04:11.202Z,2.43
2019-02-07T10:08:35.817Z,2.35
2019-02-07T10:13:07.049Z,2.27
2019-02-07T10:17:27.955Z,2.21
2019-02-07T10:22:06.480Z,2.36
2019-02-07T10:26:31.167Z,2.41
2019-02-07T10:31:02.880Z,2.46
2019-02-07T10:35:27.765Z,2.55
2019-02-07T10:39:59.147Z,2.46
2019-02-07T10:44:23.738Z,2.48
2019-02-07T10:48:44.756Z,2.40
2019-02-07T10:53:13.642Z,2.48
2019-02-07T10:57:34.396Z,2.56
2019-02-07T11:02:09.535Z,2.70
2019-02-07T11:06:44.061Z,2.69
2019-02-07T11:11:21.856Z,2.79
2019-02-07T11:16:05.956Z,2.67
2019-02-07T11:20:30.977Z,2.84
2019-02-07T11:24:54.762Z,2.70
2019-02-07T11:29:19.333Z,2.80
2019-02-07T11:33:44.124Z,2.88
2019-02-07T11:38:22.249Z,2.92
2019-02-07T11:42:47.983Z,3.11
2019-02-07T11:47:22.797Z,3.04
2019-02-07T11:51:48.383Z,3.11
2019-02-07T11:56:12.623Z,3.08
2019-02-07T12:00:36.148Z,3.07
2019-02-07T12:05:02.087Z,3.11
2019-02-07T12:09:28.811Z,3.08
2019-02-07T12:13:58.052Z,3.13
2019-02-07T12:18:36.195Z,3.40
2019-02-07T12:23:15.186Z,3.24
2019-02-07T12:27:31.780Z,3.48
2019-02-07T12:32:00.660Z,3.27
2019-02-07T12:36:29.426Z,3.44
2019-02-07T12:40:55.702Z,3.39
2019-02-07T12:45:32.658Z,3.41
2019-02-07T12:50:03.067Z,3.43
2019-02-07T12:54:35.206Z,3.51
2019-02-07T12:59:19.510Z,3.50
2019-02-07T13:04:03.896Z,3.65
2019-02-07T13:08:38.916Z,3.62
2019-02-07T13:13:04.646Z,3.56
2019-02-07T13:17:45.943Z,3.67
2019-02-07T13:22:14.807Z,3.70
2019-02-07T13:26:33.004Z,3.72
2019-02-07T13:31:02.009Z,3.72
2019-02-07T13:35:27.374Z,3.66
2019-02-07T13:39:46.443Z,3.80
2019-02-07T13:44:18.379Z,3.82
2019-02-07T13:48:50.189Z,3.99
2019-02-07T13:53:09.098Z,4.15
2019-02-07T13:57:47.103Z,4.11
2019-02-07T14:02:12.218Z,4.27
2019-02-07T14:06:47.859Z,4.38
2019-02-07T14:11:16.505Z,4.32
2019-02-07T14:15:45.225Z,4.18
2019-02-07T14:20:14.366Z,4.41
2019-02-07T14:24:40.280Z,4.38
2019-02-07T14:29:09.430Z,4.29
2019-02-07T14:33:47.420Z,4.55
2019-02-07T14:38:28.403Z,4.62
2019-02-07T14:43:00.101Z,4.69
2019-02-07T14:47:07.064Z,4.57
2019-02-07T14:51:14.755Z,4.75
2019-02-07T14:55:21.909Z,4.86
2019-02-07T14:59:28.959Z,4.71
2019-02-07T15:03:37.516Z,4.84
2019-02-07T15:07:44.531Z,4.90
2019-02-07T15:11:51.643Z,5.00
2019-02-07T15:15:58.750Z,4.91
2019-02-07T15:20:07.034Z,4.91
2019-02-07T15:24:14.546Z,4.99
2019-02-07T15:28:21.891Z,4.90
2019-02-07T15:32:29.457Z,5.10
2019-02-07T15:36:37.191Z,5.07
2019-02-07T15:40:45.045Z,5.12
2019-02-07T15:44:53.700Z,5.14
2019-02-07T15:49:02.840Z,5.15
2019-02-07T15:53:11.299Z,5.25
2019-02-07T15:57:18.814Z,5.28
2019-02-07T16:01:43.286Z,5.27
2019-02-07T16:05:50.876Z,5.33
2019-02-07T16:09:58.010Z,5.31
2019-02-07T16:14:06.571Z,5.28
2019-02-07T16:18:13.828Z,5.36
2019-02-07T16:22:22.094Z,5.34
2019-02-07T16:26:32.744Z,5.26
2019-02-07T16:30:40.297Z,5.24
2019-02-07T16:34:47.301Z,5.26
2019-02-07T16:38:55.841Z,5.22
2019-02-07T16:43:04.119Z,5.19
2019-02-07T16:47:12.070Z,5.22
2019-02-07T16:51:19.618Z,5.22
2019-02-07T16:55:27.457Z,5.07
2019-02-07T16:59:35.530Z,4.77
2019-02-07T17:03:43.514Z,4.78
2019-02-07T17:07:55.877Z,4.78
2019-02-07T17:12:04.865Z,4.97
2019-02-07T17:16:12.483Z,4.83
2019-02-07T17:20:27.546Z,4.88
2019-02-07T17:24:34.616Z,4.87
2019-02-07T17:28:43.364Z,4.85
2019-02-07T17:32:51.075Z,4.83
2019-02-07T17:36:58.807Z,4.78
2019-02-07T17:41:06.365Z,4.61
2019-02-07T17:45:23.544Z,4.63
2019-02-07T17:49:39.114Z,4.60
2019-02-07T17:53:48.120Z,4.61
2019-02-07T17:57:56.478Z,4.50
2019-02-07T18:02:07.120Z,4.48
2019-02-07T18:06:14.467Z,4.34
2019-02-07T18:10:22.027Z,4.37
2019-02-07T18:14:41.781Z,4.34
2019-02-07T18:19:19.915Z,4.35
2019-02-07T18:23:30.851Z,4.29
2019-02-07T18:27:37.846Z,4.36
2019-02-07T18:31:45.056Z,4.37
2019-02-07T18:35:52.350Z,4.37
2019-02-07T18:39:59.505Z,4.42
2019-02-07T18:44:07.105Z,4.44
2019-02-07T18:48:14.428Z,4.51
2019-02-07T18:52:22.264Z,4.59
2019-02-07T18:56:30.876Z,4.66
2019-02-07T19:00:39.302Z,4.69
2019-02-07T19:04:46.503Z,4.75
2019-02-07T19:08:53.919Z,4.80
2019-02-07T19:13:03.848Z,4.84
2019-02-07T19:17:10.939Z,4.91
2019-02-07T19:21:18.139Z,4.93
2019-02-07T19:25:25.604Z,4.93
2019-02-07T19:29:34.313Z,4.99
2019-02-07T19:33:44.008Z,4.99
2019-02-07T19:37:51.386Z,4.99
2019-02-07T19:41:58.558Z,4.90
2019-02-07T19:46:05.913Z,4.72
2019-02-07T19:50:18.736Z,4.81
2019-02-07T19:54:25.957Z,4.64
2019-02-07T19:58:33.580Z,4.58
2019-02-07T20:02:41.116Z,4.49
2019-02-07T20:06:50.474Z,4.41
2019-02-07T20:10:57.441Z,4.37
2019-02-07T20:15:19.810Z,4.32
2019-02-07T20:19:27.044Z,4.40
2019-02-07T20:23:34.477Z,4.34
2019-02-07T20:27:41.508Z,4.39
2019-02-07T20:31:48.555Z,4.37
2019-02-07T20:35:56.660Z,4.28
2019-02-07T20:40:05.195Z,4.29
2019-02-07T20:44:14.018Z,4.27
2019-02-07T20:48:21.376Z,4.25
2019-02-07T20:52:28.407Z,4.32
2019-02-07T20:56:37.402Z,4.37
2019-02-07T21:00:47.559Z,4.34
2019-02-07T21:04:54.551Z,4.33
2019-02-07T21:09:07.913Z,4.37
2019-02-07T21:13:20.619Z,4.41
2019-02-07T21:17:27.539Z,4.53
2019-02-07T21:21:36.347Z,4.39
2019-02-07T21:25:51.286Z,4.39
2019-02-07T21:29:58.196Z,4.36
2019-02-07T21:34:06.960Z,4.44
2019-02-07T21:38:17.106Z,4.39
2019-02-07T21:42:23.988Z,4.42
2019-02-07T21:46:35.975Z,4.43
2019-02-07T21:50:43.874Z,4.45
2019-02-07T21:54:50.951Z,4.52
2019-02-07T21:58:58.146Z,4.56
2019-02-07T22:03:08.808Z,4.56
2019-02-07T22:07:15.820Z,4.61
2019-02-07T22:11:25.968Z,4.69
2019-02-07T22:15:35.225Z,4.72
2019-02-07T22:19:42.168Z,4.81
2019-02-07T22:23:49.275Z,4.89
2019-02-07T22:27:56.474Z,4.91
2019-02-07T22:32:03.739Z,4.96
2019-02-07T22:36:11.471Z,4.90
2019-02-07T22:40:21.531Z,4.93
2019-02-07T22:44:28.414Z,4.91
2019-02-07T22:48:36.419Z,4.82
2019-02-07T22:52:43.231Z,4.83
2019-02-07T22:56:51.146Z,4.84
2019-02-07T23:01:59.676Z,4.89
2019-02-07T23:06:07.073Z,4.95
2019-02-07T23:10:13.961Z,5.01
2019-02-07T23:14:21.049Z,4.99
2019-02-07T23:18:27.911Z,5.07
2019-02-07T23:22:34.716Z,5.08
2019-02-07T23:26:41.555Z,5.12
2019-02-07T23:30:48.545Z,5.12
2019-02-07T23:34:56.454Z,5.19
2019-02-07T23:39:06.848Z,5.09
2019-02-07T23:43:15.833Z,5.03
2019-02-07T23:47:22.719Z,5.05
2019-02-07T23:51:30.389Z,4.98
2019-02-07T23:55:37.513Z,4.94
2019-02-07T23:59:45.944Z,4.88
